createdAt,value
2023-01-27T00:00:42.452Z,65.19
2023-01-27T00:02:45.648Z,65.02
2023-01-27T00:04:50.894Z,64.96
2023-01-27T00:06:53.367Z,65.01
2023-01-27T00:08:55.703Z,65.05
2023-01-27T00:11:18.410Z,65.04
2023-01-27T00:13:31.875Z,64.92
2023-01-27T00:15:35.465Z,65.52
2023-01-27T00:17:38.010Z,65.12
2023-01-27T00:19:44.819Z,65.43
2023-01-27T00:22:06.156Z,64.89
2023-01-27T00:24:31.182Z,64.86
2023-01-27T00:26:33.876Z,65.28
2023-01-27T00:28:38.153Z,65.65
2023-01-27T00:30:40.356Z,65.35
2023-01-27T00:33:01.212Z,65.41
2023-01-27T00:35:03.922Z,65.68
2023-01-27T00:37:06.194Z,65.88
2023-01-27T00:39:11.292Z,65.48
2023-01-27T00:41:19.959Z,65.38
2023-01-27T00:43:22.927Z,65.17
2023-01-27T00:45:43.888Z,65.24
2023-01-27T00:47:48.832Z,66.34
2023-01-27T00:49:52.159Z,66.11
2023-01-27T00:51:55.252Z,66.19
2023-01-27T00:53:59.431Z,66.20
2023-01-27T00:56:02.156Z,66.32
2023-01-27T00:58:04.903Z,66.08
2023-01-27T01:00:09.771Z,65.81
2023-01-27T01:02:12.395Z,65.69
2023-01-27T01:04:14.719Z,65.71
2023-01-27T01:06:18.749Z,65.44
2023-01-27T01:08:23.665Z,65.89
2023-01-27T01:10:26.530Z,65.58
2023-01-27T01:12:29.003Z,66.09
2023-01-27T01:14:31.189Z,66.02
2023-01-27T01:16:33.476Z,66.07
2023-01-27T01:18:36.795Z,66.04
2023-01-27T01:20:42.091Z,65.44
2023-01-27T01:22:44.588Z,66.07
2023-01-27T01:24:47.097Z,66.03
2023-01-27T01:26:49.733Z,65.61
2023-01-27T01:28:52.086Z,66.07
2023-01-27T01:30:54.675Z,65.71
2023-01-27T01:32:57.895Z,65.93
2023-01-27T01:35:00.227Z,65.46
2023-01-27T01:37:03.541Z,65.95
2023-01-27T01:39:06.179Z,66.39
2023-01-27T01:41:14.224Z,65.97
2023-01-27T01:43:18.902Z,66.53
2023-01-27T01:45:34.111Z,66.05
2023-01-27T01:47:36.624Z,65.67
2023-01-27T01:49:40.902Z,65.98
2023-01-27T01:51:52.058Z,65.80
2023-01-27T01:54:04.351Z,66.05
2023-01-27T01:56:12.682Z,65.19
2023-01-27T01:58:15.855Z,65.92
2023-01-27T02:00:18.990Z,65.89
2023-01-27T02:02:26.557Z,65.66
2023-01-27T02:04:37.396Z,65.45
2023-01-27T02:06:48.464Z,65.54
2023-01-27T02:08:52.447Z,65.27
2023-01-27T02:10:55.078Z,65.30
2023-01-27T02:12:57.733Z,65.44
2023-01-27T02:15:00.798Z,65.47
2023-01-27T02:17:05.579Z,65.38
2023-01-27T02:19:19.060Z,65.63
2023-01-27T02:21:21.383Z,65.25
2023-01-27T02:23:23.988Z,65.64
2023-01-27T02:25:35.621Z,65.77
2023-01-27T02:27:37.922Z,65.39
2023-01-27T02:29:40.513Z,65.81
2023-01-27T02:31:43.182Z,65.47
2023-01-27T02:33:46.507Z,65.42
2023-01-27T02:36:07.913Z,65.32
2023-01-27T02:38:13.728Z,65.52
2023-01-27T02:40:17.460Z,65.24
2023-01-27T02:42:20.259Z,65.64
2023-01-27T02:44:22.688Z,65.63
2023-01-27T02:46:25.386Z,65.37
2023-01-27T02:48:28.345Z,65.46
2023-01-27T02:50:30.846Z,64.86
2023-01-27T02:52:33.233Z,65.00
2023-01-27T02:54:35.733Z,65.03
2023-01-27T02:56:38.356Z,65.49
2023-01-27T02:58:42.512Z,65.77
2023-01-27T03:00:54.409Z,65.16
2023-01-27T03:02:57.169Z,65.41
2023-01-27T03:05:00.969Z,65.81
2023-01-27T03:07:03.228Z,65.44
2023-01-27T03:09:06.442Z,65.26
2023-01-27T03:11:10.261Z,65.69
2023-01-27T03:13:14.555Z,65.18
2023-01-27T03:15:35.824Z,65.44
2023-01-27T03:17:57.716Z,65.02
2023-01-27T03:20:00.001Z,65.09
2023-01-27T03:22:03.631Z,65.53
2023-01-27T03:24:08.677Z,65.42
2023-01-27T03:26:11.196Z,65.60
2023-01-27T03:28:17.229Z,65.31
2023-01-27T03:30:28.749Z,65.12
2023-01-27T03:32:47.752Z,65.41
2023-01-27T03:35:13.364Z,64.96
2023-01-27T03:37:37.721Z,65.58
2023-01-27T03:40:02.049Z,65.11
2023-01-27T03:42:23.995Z,65.41
2023-01-27T03:44:45.694Z,65.59
2023-01-27T03:46:51.389Z,65.49
2023-01-27T03:48:55.753Z,65.96
2023-01-27T03:50:59.229Z,65.85
2023-01-27T03:53:05.547Z,65.73
2023-01-27T03:55:11.563Z,65.32
2023-01-27T03:57:14.332Z,65.71
2023-01-27T03:59:17.183Z,65.45
2023-01-27T04:01:23.369Z,65.90
2023-01-27T04:03:45.951Z,65.37
2023-01-27T04:06:07.365Z,65.32
2023-01-27T04:08:09.892Z,65.87
2023-01-27T04:10:12.256Z,65.32
2023-01-27T04:12:14.695Z,65.47
2023-01-27T04:14:17.490Z,65.53
2023-01-27T04:16:20.284Z,65.47
2023-01-27T04:18:22.731Z,65.47
2023-01-27T04:20:25.325Z,65.50
2023-01-27T04:22:27.592Z,65.52
2023-01-27T04:24:30.422Z,65.26
2023-01-27T04:26:34.720Z,65.77
2023-01-27T04:28:44.194Z,65.65
2023-01-27T04:30:47.298Z,65.94
2023-01-27T04:32:49.560Z,65.73
2023-01-27T04:34:51.895Z,65.24
2023-01-27T04:36:55.154Z,65.32
2023-01-27T04:38:57.759Z,65.41
2023-01-27T04:41:00.236Z,65.65
2023-01-27T04:43:02.480Z,65.60
2023-01-27T04:45:05.727Z,65.87
2023-01-27T04:47:08.100Z,65.22
2023-01-27T04:49:11.306Z,65.28
2023-01-27T04:51:13.681Z,65.06
2023-01-27T04:53:16.119Z,65.20
2023-01-27T04:55:18.437Z,65.00
2023-01-27T04:57:21.250Z,64.73
2023-01-27T04:59:23.980Z,65.13
2023-01-27T05:01:27.287Z,65.03
2023-01-27T05:03:29.975Z,64.45
2023-01-27T05:05:34.655Z,65.20
2023-01-27T05:07:37.325Z,65.25
2023-01-27T05:09:39.971Z,65.11
2023-01-27T05:11:42.323Z,65.02
2023-01-27T05:13:45.062Z,64.71
2023-01-27T05:15:48.635Z,65.15
2023-01-27T05:17:51.452Z,65.38
2023-01-27T05:19:53.784Z,65.13
2023-01-27T05:21:56.824Z,64.86
2023-01-27T05:23:59.367Z,64.79
2023-01-27T05:26:08.387Z,65.14
2023-01-27T05:28:12.214Z,65.19
2023-01-27T05:30:14.685Z,64.89
2023-01-27T05:32:17.235Z,64.95
2023-01-27T05:34:19.675Z,65.11
2023-01-27T05:36:24.427Z,65.19
2023-01-27T05:38:26.756Z,65.40
2023-01-27T05:40:30.069Z,65.49
2023-01-27T05:42:32.494Z,65.10
2023-01-27T05:44:35.225Z,64.92
2023-01-27T05:46:40.345Z,65.58
2023-01-27T05:48:46.072Z,64.56
2023-01-27T05:50:56.010Z,64.74
2023-01-27T05:52:58.386Z,64.39
2023-01-27T05:55:00.911Z,64.42
2023-01-27T05:57:03.387Z,64.34
2023-01-27T05:59:05.842Z,64.57
2023-01-27T06:01:11.420Z,64.41
2023-01-27T06:03:14.174Z,64.36
2023-01-27T06:05:17.046Z,64.20
2023-01-27T06:07:19.704Z,64.00
2023-01-27T06:09:22.146Z,63.68
2023-01-27T06:11:26.664Z,63.47
2023-01-27T06:13:29.854Z,63.89
2023-01-27T06:15:32.499Z,63.70
2023-01-27T06:17:35.533Z,63.89
2023-01-27T06:19:37.934Z,63.00
2023-01-27T06:21:40.653Z,63.45
2023-01-27T06:23:43.219Z,63.34
2023-01-27T06:25:48.488Z,63.55
2023-01-27T06:27:57.809Z,63.13
2023-01-27T06:30:00.686Z,62.85
2023-01-27T06:32:04.272Z,62.73
2023-01-27T06:34:07.106Z,63.38
2023-01-27T06:36:15.246Z,63.03
2023-01-27T06:38:17.970Z,62.82
2023-01-27T06:40:20.867Z,62.26
2023-01-27T06:42:23.467Z,62.89
2023-01-27T06:44:26.361Z,62.10
2023-01-27T06:46:28.873Z,62.22
2023-01-27T06:48:31.529Z,62.53
2023-01-27T06:50:33.898Z,62.51
2023-01-27T06:52:36.255Z,62.71
2023-01-27T06:54:38.885Z,62.91
2023-01-27T06:56:41.314Z,62.42
2023-01-27T06:58:45.223Z,62.74
2023-01-27T07:00:48.228Z,62.91
2023-01-27T07:02:51.231Z,62.25
2023-01-27T07:04:53.999Z,62.18
2023-01-27T07:06:56.266Z,62.56
2023-01-27T07:08:59.039Z,62.35
2023-01-27T07:11:04.650Z,61.79
2023-01-27T07:13:08.784Z,62.03
2023-01-27T07:15:11.936Z,61.45
2023-01-27T07:17:15.259Z,62.23
2023-01-27T07:19:17.855Z,62.02
2023-01-27T07:21:20.215Z,62.18
2023-01-27T07:23:22.947Z,62.06
2023-01-27T07:25:25.899Z,62.42
2023-01-27T07:27:28.855Z,61.45
2023-01-27T07:29:31.189Z,61.69
2023-01-27T07:31:35.874Z,62.02
2023-01-27T07:33:38.688Z,61.27
2023-01-27T07:35:42.994Z,60.98
2023-01-27T07:37:58.337Z,61.40
2023-01-27T07:40:00.775Z,60.65
2023-01-27T07:42:03.224Z,60.28
2023-01-27T07:44:06.166Z,60.66
2023-01-27T07:46:09.797Z,60.49
2023-01-27T07:48:14.071Z,60.46
2023-01-27T07:50:16.928Z,60.63
2023-01-27T07:52:19.474Z,61.03
2023-01-27T07:54:22.196Z,60.70
2023-01-27T07:56:24.735Z,60.58
2023-01-27T07:58:27.415Z,60.96
2023-01-27T08:00:30.611Z,60.95
2023-01-27T08:02:33.476Z,60.60
2023-01-27T08:04:47.223Z,60.51
2023-01-27T08:06:55.314Z,60.60
2023-01-27T08:08:57.934Z,61.08
2023-01-27T08:11:08.754Z,60.84
2023-01-27T08:13:11.456Z,60.64
2023-01-27T08:15:16.599Z,61.05
2023-01-27T08:17:21.086Z,60.65
2023-01-27T08:19:23.541Z,60.61
2023-01-27T08:21:26.240Z,60.54
2023-01-27T08:23:29.422Z,60.01
2023-01-27T08:25:32.164Z,60.41
2023-01-27T08:27:34.902Z,60.45
2023-01-27T08:29:37.644Z,60.05
2023-01-27T08:31:42.068Z,59.70
2023-01-27T08:33:46.831Z,60.41
2023-01-27T08:35:51.013Z,59.42
2023-01-27T08:37:53.551Z,59.34
2023-01-27T08:39:56.838Z,59.31
2023-01-27T08:41:59.767Z,59.63
2023-01-27T08:44:02.582Z,58.48
2023-01-27T08:46:07.110Z,58.93
2023-01-27T08:48:12.155Z,58.07
2023-01-27T08:50:15.420Z,58.67
2023-01-27T08:52:18.112Z,58.33
2023-01-27T08:54:20.769Z,56.94
2023-01-27T08:56:24.729Z,57.77
2023-01-27T08:58:27.271Z,56.20
2023-01-27T09:00:30.136Z,57.10
2023-01-27T09:02:32.851Z,57.85
2023-01-27T09:04:38.476Z,57.39
2023-01-27T09:06:41.084Z,56.92
2023-01-27T09:08:44.825Z,57.07
2023-01-27T09:10:47.642Z,57.22
2023-01-27T09:12:50.328Z,57.28
2023-01-27T09:14:52.971Z,57.52
2023-01-27T09:16:55.431Z,57.00
2023-01-27T09:18:58.771Z,56.74
2023-01-27T09:21:06.265Z,56.68
2023-01-27T09:23:08.768Z,56.87
2023-01-27T09:25:15.577Z,56.80
2023-01-27T09:27:19.213Z,56.77
2023-01-27T09:29:24.856Z,56.22
2023-01-27T09:31:27.726Z,56.40
2023-01-27T09:33:30.635Z,56.44
2023-01-27T09:35:40.144Z,55.81
2023-01-27T09:37:56.750Z,55.47
2023-01-27T09:40:04.893Z,55.97
2023-01-27T09:42:39.718Z,56.15
2023-01-27T09:45:04.386Z,56.46
2023-01-27T09:47:34.002Z,55.79
2023-01-27T09:50:03.105Z,54.93
2023-01-27T09:52:15.324Z,55.58
2023-01-27T09:54:52.506Z,55.28
2023-01-27T09:57:15.267Z,55.86
2023-01-27T09:59:41.040Z,55.37
2023-01-27T10:02:07.641Z,55.09
2023-01-27T10:04:28.785Z,56.47
2023-01-27T10:06:58.488Z,56.96
2023-01-27T10:09:11.367Z,56.54
2023-01-27T10:11:31.030Z,56.12
2023-01-27T10:13:42.280Z,55.85
2023-01-27T10:16:03.532Z,55.88
2023-01-27T10:18:11.439Z,56.60
2023-01-27T10:20:20.142Z,57.16
2023-01-27T10:22:53.496Z,57.33
2023-01-27T10:25:13.679Z,57.13
2023-01-27T10:27:24.829Z,56.99
2023-01-27T10:29:50.050Z,56.44
2023-01-27T10:32:21.299Z,56.71
2023-01-27T10:34:38.433Z,55.92
2023-01-27T10:36:40.764Z,55.58
2023-01-27T10:38:58.988Z,56.45
2023-01-27T10:41:22.241Z,56.32
2023-01-27T10:43:30.784Z,55.63
2023-01-27T10:45:49.090Z,55.40
2023-01-27T10:47:57.519Z,54.72
2023-01-27T10:50:09.771Z,54.94
2023-01-27T10:52:18.342Z,55.03
2023-01-27T10:54:36.904Z,55.18
2023-01-27T10:56:52.122Z,54.77
2023-01-27T10:59:04.418Z,55.06
2023-01-27T11:01:24.347Z,55.50
2023-01-27T11:03:43.059Z,54.69
2023-01-27T11:05:51.655Z,54.87
2023-01-27T11:08:03.181Z,54.45
2023-01-27T11:10:16.608Z,55.12
2023-01-27T11:12:30.719Z,55.23
2023-01-27T11:14:47.112Z,54.99
2023-01-27T11:16:53.722Z,54.54
2023-01-27T11:19:04.052Z,54.02
2023-01-27T11:21:10.531Z,54.20
2023-01-27T11:23:22.459Z,54.33
2023-01-27T11:25:46.871Z,54.58
2023-01-27T11:28:04.974Z,54.13
2023-01-27T11:30:20.025Z,54.75
2023-01-27T11:32:50.885Z,55.40
2023-01-27T11:35:14.981Z,55.27
2023-01-27T11:37:20.206Z,55.25
2023-01-27T11:39:22.740Z,54.44
2023-01-27T11:41:26.719Z,54.76
2023-01-27T11:43:30.136Z,53.89
2023-01-27T11:45:36.362Z,53.69
2023-01-27T11:47:42.262Z,53.68
2023-01-27T11:49:48.369Z,53.83
2023-01-27T11:52:05.844Z,53.70
2023-01-27T11:54:15.028Z,53.68
2023-01-27T11:56:20.279Z,54.30
2023-01-27T11:58:27.679Z,53.95
2023-01-27T12:00:37.799Z,54.39
2023-01-27T12:02:55.361Z,54.65
2023-01-27T12:05:07.579Z,54.33
2023-01-27T12:07:34.591Z,54.02
2023-01-27T12:09:39.808Z,55.02
2023-01-27T12:11:42.161Z,54.84
2023-01-27T12:14:04.899Z,54.60
2023-01-27T12:16:07.559Z,55.20
2023-01-27T12:18:15.427Z,55.09
2023-01-27T12:20:40.903Z,55.13
2023-01-27T12:22:48.691Z,54.98
2023-01-27T12:24:56.752Z,55.03
2023-01-27T12:27:01.079Z,54.62
2023-01-27T12:29:14.878Z,55.31
2023-01-27T12:31:27.196Z,55.44
2023-01-27T12:33:33.544Z,54.89
2023-01-27T12:35:37.561Z,55.29
2023-01-27T12:37:40.260Z,55.34
2023-01-27T12:39:50.489Z,55.27
2023-01-27T12:41:53.289Z,56.25
2023-01-27T12:44:08.769Z,55.25
2023-01-27T12:46:24.614Z,55.83
2023-01-27T12:48:31.738Z,56.45
2023-01-27T12:50:40.682Z,55.34
2023-01-27T12:52:42.998Z,55.71
2023-01-27T12:54:45.539Z,55.40
2023-01-27T12:56:49.797Z,55.78
2023-01-27T12:58:55.458Z,56.17
2023-01-27T13:01:01.470Z,56.50
2023-01-27T13:03:11.309Z,56.39
2023-01-27T13:05:18.065Z,55.89
2023-01-27T13:07:27.379Z,55.67
2023-01-27T13:09:51.376Z,55.86
2023-01-27T13:11:57.509Z,56.33
2023-01-27T13:14:00.814Z,56.54
2023-01-27T13:16:27.368Z,55.87
2023-01-27T13:18:35.170Z,56.06
2023-01-27T13:20:44.321Z,56.25
2023-01-27T13:22:59.934Z,55.98
2023-01-27T13:25:05.028Z,56.25
2023-01-27T13:27:14.916Z,56.43
2023-01-27T13:29:32.070Z,56.21
2023-01-27T13:31:57.706Z,56.15
2023-01-27T13:34:06.292Z,56.13
2023-01-27T13:36:34.351Z,55.82
2023-01-27T13:39:00.098Z,56.10
2023-01-27T13:41:14.641Z,55.80
2023-01-27T13:43:20.480Z,56.69
2023-01-27T13:45:33.295Z,56.47
2023-01-27T13:48:18.397Z,56.58
2023-01-27T13:50:31.215Z,55.54
2023-01-27T13:52:34.075Z,55.48
2023-01-27T13:54:36.550Z,54.92
2023-01-27T13:56:51.214Z,55.68
2023-01-27T13:59:02.370Z,55.90
2023-01-27T14:01:31.509Z,56.16
2023-01-27T14:03:57.593Z,56.10
2023-01-27T14:06:20.346Z,54.97
2023-01-27T14:08:42.030Z,55.73
2023-01-27T14:11:18.397Z,55.32
2023-01-27T14:13:35.430Z,55.72
2023-01-27T14:15:56.107Z,55.22
2023-01-27T14:18:13.875Z,55.62
2023-01-27T14:20:29.323Z,54.73
2023-01-27T14:22:56.847Z,53.89
2023-01-27T14:25:13.092Z,55.19
2023-01-27T14:27:23.204Z,55.72
2023-01-27T14:29:40.469Z,54.89
2023-01-27T14:32:01.689Z,55.29
2023-01-27T14:34:19.137Z,54.91
2023-01-27T14:36:25.994Z,54.11
2023-01-27T14:38:39.436Z,54.75
2023-01-27T14:41:19.037Z,54.03
2023-01-27T14:43:50.941Z,54.86
2023-01-27T14:46:22.432Z,53.93
2023-01-27T14:48:39.434Z,54.22
2023-01-27T14:51:03.284Z,54.33
2023-01-27T14:53:20.951Z,54.65
2023-01-27T14:55:33.033Z,54.04
2023-01-27T14:58:06.121Z,53.48
2023-01-27T15:00:33.330Z,54.05
2023-01-27T15:02:50.494Z,53.45
2023-01-27T15:05:01.280Z,53.22
2023-01-27T15:07:19.606Z,52.44
2023-01-27T15:10:01.362Z,51.35
2023-01-27T15:12:15.289Z,52.76
2023-01-27T15:14:51.527Z,52.22
2023-01-27T15:17:15.529Z,51.77
2023-01-27T15:19:38.408Z,52.71
2023-01-27T15:22:06.211Z,51.77
2023-01-27T15:24:18.458Z,52.09
2023-01-27T15:26:25.987Z,52.32
2023-01-27T15:28:31.003Z,52.49
2023-01-27T15:30:38.493Z,51.70
2023-01-27T15:32:40.769Z,51.68
2023-01-27T15:34:45.586Z,52.43
2023-01-27T15:37:04.626Z,52.39
2023-01-27T15:39:10.252Z,52.85
2023-01-27T15:41:16.347Z,53.30
2023-01-27T15:43:22.177Z,52.71
2023-01-27T15:45:31.086Z,52.76
2023-01-27T15:47:37.353Z,51.71
2023-01-27T15:49:48.640Z,52.59
2023-01-27T15:51:55.036Z,52.44
2023-01-27T15:54:00.425Z,52.42
2023-01-27T15:56:04.665Z,52.14
2023-01-27T15:58:09.966Z,51.93
2023-01-27T16:00:38.396Z,52.92
2023-01-27T16:02:50.462Z,52.12
2023-01-27T16:05:35.252Z,52.35
2023-01-27T16:07:39.584Z,52.64
2023-01-27T16:09:51.898Z,52.94
2023-01-27T16:12:05.614Z,52.96
2023-01-27T16:14:14.667Z,53.24
2023-01-27T16:16:20.513Z,53.21
2023-01-27T16:18:26.516Z,53.51
2023-01-27T16:20:31.880Z,53.25
2023-01-27T16:22:39.707Z,53.86
2023-01-27T16:24:48.921Z,53.32
2023-01-27T16:27:00.543Z,53.87
2023-01-27T16:29:17.645Z,53.61
2023-01-27T16:31:25.458Z,54.45
2023-01-27T16:33:34.429Z,54.11
2023-01-27T16:36:00.162Z,54.31
2023-01-27T16:38:08.936Z,54.62
2023-01-27T16:40:20.071Z,53.79
2023-01-27T16:42:31.717Z,54.50
2023-01-27T16:44:42.288Z,54.43
2023-01-27T16:47:05.068Z,54.71
2023-01-27T16:49:33.130Z,54.35
2023-01-27T16:51:35.653Z,54.83
2023-01-27T16:53:38.749Z,54.75
2023-01-27T16:55:41.769Z,54.98
2023-01-27T16:57:45.929Z,54.89
2023-01-27T16:59:50.737Z,54.60
2023-01-27T17:02:02.107Z,54.82
2023-01-27T17:04:19.109Z,55.19
2023-01-27T17:06:26.150Z,55.47
2023-01-27T17:08:36.080Z,55.29
2023-01-27T17:10:43.464Z,55.91
2023-01-27T17:12:51.052Z,55.48
2023-01-27T17:14:54.585Z,55.66
2023-01-27T17:17:01.643Z,55.62
2023-01-27T17:19:10.339Z,55.89
2023-01-27T17:21:12.914Z,55.78
2023-01-27T17:23:30.997Z,56.28
2023-01-27T17:25:37.224Z,55.95
2023-01-27T17:27:42.213Z,56.09
2023-01-27T17:29:47.053Z,55.72
2023-01-27T17:31:51.554Z,55.49
2023-01-27T17:34:02.463Z,55.44
2023-01-27T17:36:11.301Z,55.79
2023-01-27T17:38:16.232Z,55.58
2023-01-27T17:40:22.576Z,55.54
2023-01-27T17:42:29.299Z,55.35
2023-01-27T17:44:33.057Z,56.05
2023-01-27T17:46:35.993Z,55.65
2023-01-27T17:48:47.787Z,55.59
2023-01-27T17:50:50.381Z,55.56
2023-01-27T17:52:56.246Z,55.84
2023-01-27T17:55:01.595Z,55.49
2023-01-27T17:57:16.085Z,56.10
2023-01-27T17:59:24.528Z,55.88
2023-01-27T18:01:27.900Z,56.13
2023-01-27T18:03:36.381Z,56.01
2023-01-27T18:05:40.369Z,56.53
2023-01-27T18:07:46.183Z,55.66
2023-01-27T18:09:54.893Z,56.21
2023-01-27T18:12:03.435Z,56.23
2023-01-27T18:14:14.718Z,56.49
2023-01-27T18:16:23.836Z,56.32
2023-01-27T18:18:29.410Z,56.18
2023-01-27T18:20:36.538Z,56.05
2023-01-27T18:22:45.079Z,55.49
2023-01-27T18:24:54.528Z,56.30
2023-01-27T18:27:03.612Z,56.34
2023-01-27T18:29:28.584Z,56.58
2023-01-27T18:31:38.670Z,56.58
2023-01-27T18:33:42.968Z,56.42
2023-01-27T18:36:00.182Z,56.94
2023-01-27T18:38:05.877Z,56.10
2023-01-27T18:40:42.618Z,56.07
2023-01-27T18:42:45.411Z,55.64
2023-01-27T18:44:52.322Z,55.82
2023-01-27T18:47:05.675Z,55.15
2023-01-27T18:49:11.477Z,55.31
2023-01-27T18:51:15.888Z,55.63
2023-01-27T18:53:21.547Z,55.03
2023-01-27T18:55:29.016Z,55.08
2023-01-27T18:57:31.428Z,55.86
2023-01-27T18:59:34.433Z,55.50
2023-01-27T19:01:37.271Z,55.07
2023-01-27T19:03:39.810Z,55.71
2023-01-27T19:05:42.765Z,55.59
2023-01-27T19:07:45.415Z,55.79
2023-01-27T19:09:49.416Z,56.05
2023-01-27T19:11:54.449Z,55.77
2023-01-27T19:13:57.157Z,55.53
2023-01-27T19:16:00.374Z,54.85
2023-01-27T19:18:13.870Z,55.12
2023-01-27T19:20:19.653Z,55.69
2023-01-27T19:22:22.755Z,55.12
2023-01-27T19:24:25.198Z,55.07
2023-01-27T19:26:28.625Z,55.42
2023-01-27T19:28:37.337Z,55.85
2023-01-27T19:30:40.381Z,55.30
2023-01-27T19:32:45.085Z,54.71
2023-01-27T19:34:47.588Z,56.10
2023-01-27T19:36:50.198Z,55.27
2023-01-27T19:39:02.589Z,55.53
2023-01-27T19:41:05.769Z,55.78
2023-01-27T19:43:13.945Z,55.75
2023-01-27T19:45:18.017Z,55.88
2023-01-27T19:47:20.419Z,56.25
2023-01-27T19:49:23.182Z,56.33
2023-01-27T19:51:27.539Z,56.23
2023-01-27T19:53:30.248Z,56.89
2023-01-27T19:55:33.636Z,56.99
2023-01-27T19:57:38.822Z,57.03
2023-01-27T19:59:45.789Z,57.01
2023-01-27T20:01:50.639Z,56.61
2023-01-27T20:04:00.082Z,56.84
2023-01-27T20:06:03.480Z,56.67
2023-01-27T20:08:08.845Z,56.88
2023-01-27T20:10:18.162Z,57.38
2023-01-27T20:12:21.069Z,57.12
2023-01-27T20:14:26.349Z,57.26
2023-01-27T20:16:29.999Z,56.96
2023-01-27T20:18:32.497Z,57.00
2023-01-27T20:20:35.170Z,57.38
2023-01-27T20:22:37.761Z,57.31
2023-01-27T20:24:40.208Z,56.89
2023-01-27T20:26:42.769Z,56.93
2023-01-27T20:28:46.128Z,57.08
2023-01-27T20:30:49.036Z,57.34
2023-01-27T20:32:54.376Z,57.21
2023-01-27T20:34:59.863Z,57.25
2023-01-27T20:37:02.511Z,57.06
2023-01-27T20:39:05.274Z,57.01
2023-01-27T20:41:12.478Z,56.82
2023-01-27T20:43:21.167Z,57.47
2023-01-27T20:45:32.936Z,57.12
2023-01-27T20:47:35.657Z,57.10
2023-01-27T20:49:38.099Z,57.01
2023-01-27T20:51:40.564Z,57.64
2023-01-27T20:53:48.065Z,57.65
2023-01-27T20:55:50.533Z,57.61
2023-01-27T20:57:52.923Z,57.31
2023-01-27T20:59:55.622Z,57.41
2023-01-27T21:01:58.285Z,57.39
2023-01-27T21:04:00.806Z,58.07
2023-01-27T21:06:03.897Z,57.53
2023-01-27T21:08:06.467Z,57.43
2023-01-27T21:10:09.842Z,57.68
2023-01-27T21:12:12.396Z,57.67
2023-01-27T21:14:15.177Z,57.68
2023-01-27T21:16:17.520Z,57.07
2023-01-27T21:18:19.978Z,57.68
2023-01-27T21:20:22.775Z,57.75
2023-01-27T21:22:25.533Z,57.50
2023-01-27T21:24:28.438Z,57.64
2023-01-27T21:26:34.240Z,57.44
2023-01-27T21:28:37.191Z,57.79
2023-01-27T21:30:39.767Z,57.98
2023-01-27T21:32:42.137Z,57.74
2023-01-27T21:34:44.603Z,58.33
2023-01-27T21:36:47.334Z,58.29
2023-01-27T21:38:53.053Z,57.70
2023-01-27T21:40:56.576Z,57.98
2023-01-27T21:43:18.076Z,57.85
2023-01-27T21:45:21.384Z,58.28
2023-01-27T21:47:23.860Z,58.22
2023-01-27T21:49:26.415Z,58.31
2023-01-27T21:51:28.879Z,57.96
2023-01-27T21:53:33.664Z,58.20
2023-01-27T21:55:36.394Z,58.44
2023-01-27T21:57:39.111Z,58.57
2023-01-27T21:59:41.706Z,58.60
2023-01-27T22:01:44.389Z,58.18
2023-01-27T22:03:47.086Z,57.84
2023-01-27T22:05:49.953Z,57.81
2023-01-27T22:07:53.335Z,58.46
2023-01-27T22:10:21.583Z,58.48
2023-01-27T22:12:23.935Z,58.87
2023-01-27T22:14:28.270Z,58.77
2023-01-27T22:16:30.628Z,58.28
2023-01-27T22:18:33.254Z,58.45
2023-01-27T22:20:35.730Z,58.27
2023-01-27T22:22:38.201Z,58.46
2023-01-27T22:24:41.223Z,58.47
2023-01-27T22:26:43.915Z,58.41
2023-01-27T22:28:46.495Z,59.08
2023-01-27T22:30:49.209Z,58.54
2023-01-27T22:32:51.728Z,58.54
2023-01-27T22:34:54.179Z,58.49
2023-01-27T22:36:56.656Z,58.52
2023-01-27T22:38:58.975Z,58.80
2023-01-27T22:41:01.222Z,58.57
2023-01-27T22:43:10.207Z,58.85
2023-01-27T22:45:13.326Z,58.86
2023-01-27T22:47:15.804Z,58.90
2023-01-27T22:49:18.496Z,58.99
2023-01-27T22:51:21.408Z,59.18
2023-01-27T22:53:24.088Z,59.14
2023-01-27T22:55:29.725Z,59.19
2023-01-27T22:57:33.055Z,59.63
2023-01-27T22:59:35.389Z,59.07
2023-01-27T23:01:38.213Z,59.71
2023-01-27T23:03:40.674Z,59.64
2023-01-27T23:05:43.507Z,59.96
2023-01-27T23:07:47.629Z,59.33
2023-01-27T23:09:49.869Z,60.00
2023-01-27T23:11:52.032Z,59.53
2023-01-27T23:13:55.001Z,59.70
2023-01-27T23:15:57.762Z,59.54
2023-01-27T23:17:59.995Z,59.66
2023-01-27T23:20:02.605Z,60.24
2023-01-27T23:22:05.346Z,60.19
2023-01-27T23:24:07.957Z,60.32
2023-01-27T23:26:10.639Z,59.45
2023-01-27T23:28:18.236Z,60.15
2023-01-27T23:30:20.519Z,60.57
2023-01-27T23:32:23.413Z,59.92
2023-01-27T23:34:25.858Z,60.06
2023-01-27T23:36:28.590Z,60.81
2023-01-27T23:38:33.470Z,59.84
2023-01-27T23:40:37.756Z,60.58
2023-01-27T23:42:41.764Z,60.52
2023-01-27T23:47:24.805Z,60.78
2023-01-27T23:49:27.104Z,60.58
2023-01-27T23:51:29.530Z,60.75
2023-01-27T23:53:31.767Z,60.67
2023-01-27T23:55:33.938Z,60.53
2023-01-27T23:57:36.627Z,61.01
2023-01-27T23:59:38.799Z,61.47
